Osgood, IN

12:20 AM EST on February 07, 2016 (GMT -0500)
APRSWXNET | | Change Station
CLOSE
Current Station
Personal Weather Station
Location: Versailles, IN
Elevation: 954 ft
Nearby Weather Stations

Elev 954 ft 39.07 °N, 85.25 °W | Updated 21 minutes ago

Clear
Clear
32 °F
Feels Like 32 °F
N
1
Wind Variable Wind from SSE
Gusts 3.0 mph

Today
High -- | Low -- °F
--% Chance of Precip.
Yesterday
High -- | Low -- °F
Precip. -- in
Pressure 30.22 in
Visibility 10.0 miles
Clouds Clear
Windchill 32 °F
Dew Point 26 °F
Humidity 78%
Rainfall in
Snow Depth Not available.
7:42 AM 6:08 PM
Waning Crescent, 3% visible
METAR KCVG 070452Z 19006KT 10SM CLR 01/M05 A3021 RMK AO2 SLP234 T00111050 400831056 $
Pressure 30.22 in
Visibility 10.0 miles
Clouds Clear
Windchill 32 °F
Dew Point 26 °F
Humidity 78%
Rainfall in
Snow Depth Not available.
7:42 AM 6:08 PM
Waning Crescent, 3% visible
METAR KCVG 070452Z 19006KT 10SM CLR 01/M05 A3021 RMK AO2 SLP234 T00111050 400831056 $

10-Day Weather Forecast

Almanac

Astronomy

Feb. 07, 2016 Rise Set
Actual Time
Civil Twilight
Nautical Twilight
Astronomical Twilight
Moon
Length of Visible Light
Length of Day
Tomorrow will be .
, % of the Moon is Illuminated

Today's Extremes

State Highs State Lows

Community

WunderPhotos

Upload Photos

1,891,162 photos uploaded!

WunderBlog® & News

Nearby

Air Quality

  Air Quality AQ Index Pollutant
Not available.

Snow Depth

Station Depth Elevation

Earthquake Activity

City Distance Mag. Time & Date
Minimum magnitude displayed is 2.5.

Coastal Water Temperatures

Place Temperature

Stations

Nearby Weather Stations

Station Location Temp. Windchill Dew Point Humidity Wind Precip. Elev Updated Type
                   

Watches & Warnings

There are currently no watches in effect.